sensor_id;sensor_type;location;lat;lon;timestamp;temperature;humidity
11505;DHT22;5809;53.262;10.408;2023-07-13T00:00:45;17.10;99.90
11505;DHT22;5809;53.262;10.408;2023-07-13T00:03:12;17.10;99.90
11505;DHT22;5809;53.262;10.408;2023-07-13T00:05:39;17.00;99.90
11505;DHT22;5809;53.262;10.408;2023-07-13T00:08:06;17.00;99.90
11505;DHT22;5809;53.262;10.408;2023-07-13T00:15:28;16.80;99.90
11505;DHT22;5809;53.262;10.408;2023-07-13T00:17:58;16.80;99.90
11505;DHT22;5809;53.262;10.408;2023-07-13T00:20:26;16.70;99.90
11505;DHT22;5809;53.262;10.408;2023-07-13T00:22:53;16.70;99.90
11505;DHT22;5809;53.262;10.408;2023-07-13T00:25:20;16.60;99.90
11505;DHT22;5809;53.262;10.408;2023-07-13T00:27:48;16.50;99.90
11505;DHT22;5809;53.262;10.408;2023-07-13T00:32:43;16.50;99.90
11505;DHT22;5809;53.262;10.408;2023-07-13T00:35:13;16.50;99.90
11505;DHT22;5809;53.262;10.408;2023-07-13T00:37:41;16.40;99.90
11505;DHT22;5809;53.262;10.408;2023-07-13T00:40:10;16.40;99.90
11505;DHT22;5809;53.262;10.408;2023-07-13T00:42:37;16.30;99.90
11505;DHT22;5809;53.262;10.408;2023-07-13T00:46:02;16.30;99.90
11505;DHT22;5809;53.262;10.408;2023-07-13T00:47:53;16.20;99.90
11505;DHT22;5809;53.262;10.408;2023-07-13T00:50:23;16.20;99.90
11505;DHT22;5809;53.262;10.408;2023-07-13T00:52:54;16.10;99.90
11505;DHT22;5809;53.262;10.408;2023-07-13T00:55:23;16.00;99.90
11505;DHT22;5809;53.262;10.408;2023-07-13T00:57:50;16.00;99.90
11505;DHT22;5809;53.262;10.408;2023-07-13T01:00:17;15.90;99.90
11505;DHT22;5809;53.262;10.408;2023-07-13T01:02:46;15.90;99.90
11505;DHT22;5809;53.262;10.408;2023-07-13T01:05:16;15.90;99.90
11505;DHT22;5809;53.262;10.408;2023-07-13T01:07:45;15.80;99.90
11505;DHT22;5809;53.262;10.408;2023-07-13T01:10:14;15.70;99.90
11505;DHT22;5809;53.262;10.408;2023-07-13T01:17:50;15.60;99.90
11505;DHT22;5809;53.262;10.408;2023-07-13T01:22:45;15.50;99.90
11505;DHT22;5809;53.262;10.408;2023-07-13T01:25:12;15.40;99.90
11505;DHT22;5809;53.262;10.408;2023-07-13T01:30:07;15.30;99.90
11505;DHT22;5809;53.262;10.408;2023-07-13T01:32:35;15.30;99.90
11505;DHT22;5809;53.262;10.408;2023-07-13T01:40:00;15.20;99.90
11505;DHT22;5809;53.262;10.408;2023-07-13T01:42:28;15.20;99.90
11505;DHT22;5809;53.262;10.408;2023-07-13T01:47:22;15.10;99.90
11505;DHT22;5809;53.262;10.408;2023-07-13T01:49:49;15.10;99.90
11505;DHT22;5809;53.262;10.408;2023-07-13T01:54:44;15.00;99.90
11505;DHT22;5809;53.262;10.408;2023-07-13T01:57:12;15.00;99.90
11505;DHT22;5809;53.262;10.408;2023-07-13T01:59:39;15.00;99.90
11505;DHT22;5809;53.262;10.408;2023-07-13T02:02:06;14.90;99.90
11505;DHT22;5809;53.262;10.408;2023-07-13T02:04:34;14.90;99.90
11505;DHT22;5809;53.262;10.408;2023-07-13T02:07:01;14.80;99.90
11505;DHT22;5809;53.262;10.408;2023-07-13T02:09:27;14.80;99.90
11505;DHT22;5809;53.262;10.408;2023-07-13T02:29:10;14.60;99.90
11505;DHT22;5809;53.262;10.408;2023-07-13T02:31:38;14.50;99.90
11505;DHT22;5809;53.262;10.408;2023-07-13T02:34:05;14.50;99.90
11505;DHT22;5809;53.262;10.408;2023-07-13T02:41:28;14.40;99.90
11505;DHT22;5809;53.262;10.408;2023-07-13T02:46:28;14.30;99.90
11505;DHT22;5809;53.262;10.408;2023-07-13T02:48:56;14.40;99.90
11505;DHT22;5809;53.262;10.408;2023-07-13T02:53:50;14.40;99.90
11505;DHT22;5809;53.262;10.408;2023-07-13T03:03:44;14.30;99.90
11505;DHT22;5809;53.262;10.408;2023-07-13T03:06:14;14.20;99.90
11505;DHT22;5809;53.262;10.408;2023-07-13T03:08:42;14.30;99.90
11505;DHT22;5809;53.262;10.408;2023-07-13T03:11:11;14.20;99.90
11505;DHT22;5809;53.262;10.408;2023-07-13T03:13:39;14.20;99.90
11505;DHT22;5809;53.262;10.408;2023-07-13T03:16:06;14.60;99.90
11505;DHT22;5809;53.262;10.408;2023-07-13T03:23:29;14.20;99.90
11505;DHT22;5809;53.262;10.408;2023-07-13T03:26:04;14.30;99.90
11505;DHT22;5809;53.262;10.408;2023-07-13T03:28:31;14.20;99.90
11505;DHT22;5809;53.262;10.408;2023-07-13T03:35:56;14.30;99.90
11505;DHT22;5809;53.262;10.408;2023-07-13T03:40:52;14.30;99.90
11505;DHT22;5809;53.262;10.408;2023-07-13T03:45:46;14.20;99.90
11505;DHT22;5809;53.262;10.408;2023-07-13T03:48:13;13.10;99.90
11505;DHT22;5809;53.262;10.408;2023-07-13T03:53:08;14.30;99.90
11505;DHT22;5809;53.262;10.408;2023-07-13T04:00:45;14.30;99.90
11505;DHT22;5809;53.262;10.408;2023-07-13T04:05:39;14.40;99.90
11505;DHT22;5809;53.262;10.408;2023-07-13T04:08:06;14.30;99.90
11505;DHT22;5809;53.262;10.408;2023-07-13T04:13:00;14.50;99.90
11505;DHT22;5809;53.262;10.408;2023-07-13T04:15:29;14.60;99.90
11505;DHT22;5809;53.262;10.408;2023-07-13T04:17:58;14.60;99.90
11505;DHT22;5809;53.262;10.408;2023-07-13T04:22:52;14.80;99.90
11505;DHT22;5809;53.262;10.408;2023-07-13T04:30:14;15.00;99.90
11505;DHT22;5809;53.262;10.408;2023-07-13T04:32:41;15.10;99.90
11505;DHT22;5809;53.262;10.408;2023-07-13T04:35:10;15.10;99.90
11505;DHT22;5809;53.262;10.408;2023-07-13T04:37:37;15.20;99.90
11505;DHT22;5809;53.262;10.408;2023-07-13T04:40:04;15.30;99.90
11505;DHT22;5809;53.262;10.408;2023-07-13T04:42:31;15.40;99.90
11505;DHT22;5809;53.262;10.408;2023-07-13T04:47:30;15.50;99.90
11505;DHT22;5809;53.262;10.408;2023-07-13T04:49:57;15.40;99.90
11505;DHT22;5809;53.262;10.408;2023-07-13T04:52:25;15.50;99.90
11505;DHT22;5809;53.262;10.408;2023-07-13T04:54:52;15.50;99.90
11505;DHT22;5809;53.262;10.408;2023-07-13T04:59:46;15.50;99.90
11505;DHT22;5809;53.262;10.408;2023-07-13T05:02:13;15.50;99.90
11505;DHT22;5809;53.262;10.408;2023-07-13T05:09:36;15.80;99.90
11505;DHT22;5809;53.262;10.408;2023-07-13T05:14:30;16.40;99.90
11505;DHT22;5809;53.262;10.408;2023-07-13T05:19:24;16.70;99.90
11505;DHT22;5809;53.262;10.408;2023-07-13T05:24:19;17.20;99.90
11505;DHT22;5809;53.262;10.408;2023-07-13T05:26:47;17.60;99.90
11505;DHT22;5809;53.262;10.408;2023-07-13T05:36:35;17.80;99.90
11505;DHT22;5809;53.262;10.408;2023-07-13T05:39:03;18.00;99.90
11505;DHT22;5809;53.262;10.408;2023-07-13T05:43:58;18.20;99.90
11505;DHT22;5809;53.262;10.408;2023-07-13T05:46:25;18.20;99.90
11505;DHT22;5809;53.262;10.408;2023-07-13T05:48:52;18.20;99.90
11505;DHT22;5809;53.262;10.408;2023-07-13T05:51:19;18.30;99.90
11505;DHT22;5809;53.262;10.408;2023-07-13T05:56:13;18.90;99.90
11505;DHT22;5809;53.262;10.408;2023-07-13T06:01:10;19.10;99.90
11505;DHT22;5809;53.262;10.408;2023-07-13T06:06:05;19.60;99.90
11505;DHT22;5809;53.262;10.408;2023-07-13T06:08:32;19.40;99.90
11505;DHT22;5809;53.262;10.408;2023-07-13T06:11:03;19.40;99.90
11505;DHT22;5809;53.262;10.408;2023-07-13T06:18:27;19.70;99.90
11505;DHT22;5809;53.262;10.408;2023-07-13T06:25:48;20.30;99.90
11505;DHT22;5809;53.262;10.408;2023-07-13T06:30:42;20.60;99.90
11505;DHT22;5809;53.262;10.408;2023-07-13T06:35:37;20.50;99.90
11505;DHT22;5809;53.262;10.408;2023-07-13T06:38:04;20.70;99.90
11505;DHT22;5809;53.262;10.408;2023-07-13T06:42:58;20.90;99.90
11505;DHT22;5809;53.262;10.408;2023-07-13T06:47:52;20.70;99.90
11505;DHT22;5809;53.262;10.408;2023-07-13T06:50:19;20.60;99.90
11505;DHT22;5809;53.262;10.408;2023-07-13T06:52:47;20.50;99.90
11505;DHT22;5809;53.262;10.408;2023-07-13T07:00:10;20.70;99.90
11505;DHT22;5809;53.262;10.408;2023-07-13T07:02:37;20.70;99.90
11505;DHT22;5809;53.262;10.408;2023-07-13T07:05:05;20.80;99.90
11505;DHT22;5809;53.262;10.408;2023-07-13T07:07:31;21.20;99.90
11505;DHT22;5809;53.262;10.408;2023-07-13T07:10:00;21.60;99.90
11505;DHT22;5809;53.262;10.408;2023-07-13T07:12:28;21.90;99.90
11505;DHT22;5809;53.262;10.408;2023-07-13T07:14:55;21.90;99.90
11505;DHT22;5809;53.262;10.408;2023-07-13T07:17:22;21.90;99.90
11505;DHT22;5809;53.262;10.408;2023-07-13T07:19:48;22.10;99.90
11505;DHT22;5809;53.262;10.408;2023-07-13T07:27:11;22.60;99.90
11505;DHT22;5809;53.262;10.408;2023-07-13T07:29:38;22.60;99.90
11505;DHT22;5809;53.262;10.408;2023-07-13T07:32:05;22.60;99.90
11505;DHT22;5809;53.262;10.408;2023-07-13T07:34:32;22.20;99.90
11505;DHT22;5809;53.262;10.408;2023-07-13T07:37:00;22.70;99.90
11505;DHT22;5809;53.262;10.408;2023-07-13T07:39:27;23.10;99.90
11505;DHT22;5809;53.262;10.408;2023-07-13T07:44:23;23.30;99.90
11505;DHT22;5809;53.262;10.408;2023-07-13T07:46:50;23.10;99.90
11505;DHT22;5809;53.262;10.408;2023-07-13T07:49:16;23.00;99.90
11505;DHT22;5809;53.262;10.408;2023-07-13T07:51:44;22.70;99.90
11505;DHT22;5809;53.262;10.408;2023-07-13T07:54:11;22.70;99.90
11505;DHT22;5809;53.262;10.408;2023-07-13T07:56:38;23.00;99.90
11505;DHT22;5809;53.262;10.408;2023-07-13T07:59:05;22.90;99.90
11505;DHT22;5809;53.262;10.408;2023-07-13T08:01:33;22.50;99.90
11505;DHT22;5809;53.262;10.408;2023-07-13T08:04:00;22.90;99.90
11505;DHT22;5809;53.262;10.408;2023-07-13T08:06:27;22.80;99.90
11505;DHT22;5809;53.262;10.408;2023-07-13T08:08:54;23.70;99.90
11505;DHT22;5809;53.262;10.408;2023-07-13T08:11:21;23.70;99.90
11505;DHT22;5809;53.262;10.408;2023-07-13T08:13:49;22.90;99.90
11505;DHT22;5809;53.262;10.408;2023-07-13T08:16:16;22.90;99.90
11505;DHT22;5809;53.262;10.408;2023-07-13T08:18:44;22.80;99.90
11505;DHT22;5809;53.262;10.408;2023-07-13T08:21:11;22.50;99.90
11505;DHT22;5809;53.262;10.408;2023-07-13T08:23:38;22.00;99.90
11505;DHT22;5809;53.262;10.408;2023-07-13T08:26:06;22.40;99.90
11505;DHT22;5809;53.262;10.408;2023-07-13T08:28:33;22.70;99.90
11505;DHT22;5809;53.262;10.408;2023-07-13T08:31:01;23.20;99.90
11505;DHT22;5809;53.262;10.408;2023-07-13T08:35:57;24.10;99.90
11505;DHT22;5809;53.262;10.408;2023-07-13T08:38:24;24.30;99.90
11505;DHT22;5809;53.262;10.408;2023-07-13T08:40:53;23.80;99.90
11505;DHT22;5809;53.262;10.408;2023-07-13T08:43:25;23.70;99.90
11505;DHT22;5809;53.262;10.408;2023-07-13T08:45:57;22.90;99.90
11505;DHT22;5809;53.262;10.408;2023-07-13T08:48:27;22.90;99.90
11505;DHT22;5809;53.262;10.408;2023-07-13T08:51:00;23.00;99.90
11505;DHT22;5809;53.262;10.408;2023-07-13T08:53:36;23.70;99.90
11505;DHT22;5809;53.262;10.408;2023-07-13T08:56:18;24.50;99.90
11505;DHT22;5809;53.262;10.408;2023-07-13T08:58:48;24.20;99.90
11505;DHT22;5809;53.262;10.408;2023-07-13T09:01:19;24.20;99.90
11505;DHT22;5809;53.262;10.408;2023-07-13T09:03:50;24.60;99.90
11505;DHT22;5809;53.262;10.408;2023-07-13T09:06:23;24.50;99.90
11505;DHT22;5809;53.262;10.408;2023-07-13T09:08:57;28.00;99.90
11505;DHT22;5809;53.262;10.408;2023-07-13T09:11:36;24.30;99.90
11505;DHT22;5809;53.262;10.408;2023-07-13T09:14:32;24.40;99.90
11505;DHT22;5809;53.262;10.408;2023-07-13T09:17:02;24.30;99.90
11505;DHT22;5809;53.262;10.408;2023-07-13T09:19:32;24.00;99.90
11505;DHT22;5809;53.262;10.408;2023-07-13T09:22:04;23.80;99.90
11505;DHT22;5809;53.262;10.408;2023-07-13T09:24:38;23.50;99.90
11505;DHT22;5809;53.262;10.408;2023-07-13T09:27:14;23.50;99.90
11505;DHT22;5809;53.262;10.408;2023-07-13T09:29:47;23.80;99.90
11505;DHT22;5809;53.262;10.408;2023-07-13T09:32:17;23.60;99.90
11505;DHT22;5809;53.262;10.408;2023-07-13T09:34:50;23.10;99.90
11505;DHT22;5809;53.262;10.408;2023-07-13T09:37:20;22.60;99.90
11505;DHT22;5809;53.262;10.408;2023-07-13T09:39:49;22.40;99.90
11505;DHT22;5809;53.262;10.408;2023-07-13T09:42:18;24.30;99.90
11505;DHT22;5809;53.262;10.408;2023-07-13T09:44:53;25.20;99.90
11505;DHT22;5809;53.262;10.408;2023-07-13T09:47:22;25.30;99.90
11505;DHT22;5809;53.262;10.408;2023-07-13T09:49:55;25.10;99.90
11505;DHT22;5809;53.262;10.408;2023-07-13T09:52:26;24.80;99.90
11505;DHT22;5809;53.262;10.408;2023-07-13T09:54:54;24.40;99.90
11505;DHT22;5809;53.262;10.408;2023-07-13T09:57:25;23.90;99.90
11505;DHT22;5809;53.262;10.408;2023-07-13T09:59:54;23.10;99.90
11505;DHT22;5809;53.262;10.408;2023-07-13T10:02:26;22.20;99.90
11505;DHT22;5809;53.262;10.408;2023-07-13T10:04:56;21.70;99.90
11505;DHT22;5809;53.262;10.408;2023-07-13T10:07:25;21.30;99.90
11505;DHT22;5809;53.262;10.408;2023-07-13T10:09:52;21.20;99.90
11505;DHT22;5809;53.262;10.408;2023-07-13T10:12:21;21.50;99.90
11505;DHT22;5809;53.262;10.408;2023-07-13T10:14:51;21.90;99.90
11505;DHT22;5809;53.262;10.408;2023-07-13T10:17:27;23.00;99.90
11505;DHT22;5809;53.262;10.408;2023-07-13T10:19:59;25.40;99.90
11505;DHT22;5809;53.262;10.408;2023-07-13T10:22:37;26.10;99.90
11505;DHT22;5809;53.262;10.408;2023-07-13T10:25:15;26.10;99.90
11505;DHT22;5809;53.262;10.408;2023-07-13T10:27:44;26.50;99.90
11505;DHT22;5809;53.262;10.408;2023-07-13T10:30:15;26.80;99.90
11505;DHT22;5809;53.262;10.408;2023-07-13T10:32:43;26.60;99.90
11505;DHT22;5809;53.262;10.408;2023-07-13T10:35:14;26.60;99.90
11505;DHT22;5809;53.262;10.408;2023-07-13T10:37:46;26.40;99.90
11505;DHT22;5809;53.262;10.408;2023-07-13T10:40:18;26.90;99.90
11505;DHT22;5809;53.262;10.408;2023-07-13T10:42:48;26.60;99.90
11505;DHT22;5809;53.262;10.408;2023-07-13T10:45:19;27.00;99.90
11505;DHT22;5809;53.262;10.408;2023-07-13T10:47:47;27.50;99.90
11505;DHT22;5809;53.262;10.408;2023-07-13T10:50:20;27.70;99.90
11505;DHT22;5809;53.262;10.408;2023-07-13T10:52:50;27.10;99.90
11505;DHT22;5809;53.262;10.408;2023-07-13T10:55:37;26.20;99.90
11505;DHT22;5809;53.262;10.408;2023-07-13T10:58:13;25.00;99.90
11505;DHT22;5809;53.262;10.408;2023-07-13T11:00:47;25.40;99.90
11505;DHT22;5809;53.262;10.408;2023-07-13T11:03:16;26.30;99.90
11505;DHT22;5809;53.262;10.408;2023-07-13T11:05:44;27.60;99.90
11505;DHT22;5809;53.262;10.408;2023-07-13T11:08:19;28.40;99.90
11505;DHT22;5809;53.262;10.408;2023-07-13T11:10:54;28.60;99.90
11505;DHT22;5809;53.262;10.408;2023-07-13T11:13:55;28.90;99.90
11505;DHT22;5809;53.262;10.408;2023-07-13T11:16:38;29.30;99.90
11505;DHT22;5809;53.262;10.408;2023-07-13T11:19:26;28.70;99.90
11505;DHT22;5809;53.262;10.408;2023-07-13T11:22:03;28.10;99.90
11505;DHT22;5809;53.262;10.408;2023-07-13T11:24:53;27.80;99.90
11505;DHT22;5809;53.262;10.408;2023-07-13T11:35:34;29.40;99.90
11505;DHT22;5809;53.262;10.408;2023-07-13T11:38:11;28.90;99.90
11505;DHT22;5809;53.262;10.408;2023-07-13T11:48:03;29.20;99.90
11505;DHT22;5809;53.262;10.408;2023-07-13T11:52:58;28.40;99.90
11505;DHT22;5809;53.262;10.408;2023-07-13T12:00:29;29.70;99.90
11505;DHT22;5809;53.262;10.408;2023-07-13T12:02:59;29.70;99.90
11505;DHT22;5809;53.262;10.408;2023-07-13T12:07:57;29.40;99.90
11505;DHT22;5809;53.262;10.408;2023-07-13T12:10:25;29.70;99.90
11505;DHT22;5809;53.262;10.408;2023-07-13T12:20:21;30.30;1.00
11505;DHT22;5809;53.262;10.408;2023-07-13T12:27:47;26.60;99.90
11505;DHT22;5809;53.262;10.408;2023-07-13T12:30:28;25.80;1.00
11505;DHT22;5809;53.262;10.408;2023-07-13T12:35:26;24.90;1.00
11505;DHT22;5809;53.262;10.408;2023-07-13T12:45:23;26.00;1.00
11505;DHT22;5809;53.262;10.408;2023-07-13T12:47:54;25.40;1.00
11505;DHT22;5809;53.262;10.408;2023-07-13T12:55:20;24.20;99.90
11505;DHT22;5809;53.262;10.408;2023-07-13T12:57:50;23.80;99.90
11505;DHT22;5809;53.262;10.408;2023-07-13T13:00:23;23.10;99.90
11505;DHT22;5809;53.262;10.408;2023-07-13T13:10:16;17.20;99.90
11505;DHT22;5809;53.262;10.408;2023-07-13T13:12:43;16.70;99.90
11505;DHT22;5809;53.262;10.408;2023-07-13T13:15:10;16.40;99.90
11505;DHT22;5809;53.262;10.408;2023-07-13T13:17:38;16.40;99.90
11505;DHT22;5809;53.262;10.408;2023-07-13T13:42:41;18.00;99.90
11505;DHT22;5809;53.262;10.408;2023-07-13T13:55:12;18.90;99.90
11505;DHT22;5809;53.262;10.408;2023-07-13T13:57:39;18.60;99.90
11505;DHT22;5809;53.262;10.408;2023-07-13T14:07:35;18.40;99.90
11505;DHT22;5809;53.262;10.408;2023-07-13T14:10:08;18.50;99.90
11505;DHT22;5809;53.262;10.408;2023-07-13T14:15:04;18.80;99.90
11505;DHT22;5809;53.262;10.408;2023-07-13T14:27:25;18.70;99.90
11505;DHT22;5809;53.262;10.408;2023-07-13T14:32:19;18.80;99.90
11505;DHT22;5809;53.262;10.408;2023-07-13T14:39:43;19.00;99.90
11505;DHT22;5809;53.262;10.408;2023-07-13T14:42:11;19.10;99.90
11505;DHT22;5809;53.262;10.408;2023-07-13T14:44:38;19.30;99.90
11505;DHT22;5809;53.262;10.408;2023-07-13T14:49:36;19.40;99.90
11505;DHT22;5809;53.262;10.408;2023-07-13T14:54:41;19.40;99.90
11505;DHT22;5809;53.262;10.408;2023-07-13T14:59:42;19.60;99.90
11505;DHT22;5809;53.262;10.408;2023-07-13T15:02:19;19.60;99.90
11505;DHT22;5809;53.262;10.408;2023-07-13T15:04:49;19.70;99.90
11505;DHT22;5809;53.262;10.408;2023-07-13T15:12:14;19.50;99.90
11505;DHT22;5809;53.262;10.408;2023-07-13T15:24:42;20.20;99.90
11505;DHT22;5809;53.262;10.408;2023-07-13T15:47:05;20.30;99.90
11505;DHT22;5809;53.262;10.408;2023-07-13T15:54:26;20.50;99.90
11505;DHT22;5809;53.262;10.408;2023-07-13T15:56:55;20.60;99.90
11505;DHT22;5809;53.262;10.408;2023-07-13T15:59:22;20.50;99.90
11505;DHT22;5809;53.262;10.408;2023-07-13T16:01:49;20.60;99.90
11505;DHT22;5809;53.262;10.408;2023-07-13T16:14:13;20.50;99.90
11505;DHT22;5809;53.262;10.408;2023-07-13T16:21:42;20.30;99.90
11505;DHT22;5809;53.262;10.408;2023-07-13T16:24:17;20.30;99.90
11505;DHT22;5809;53.262;10.408;2023-07-13T16:26:46;20.30;99.90
11505;DHT22;5809;53.262;10.408;2023-07-13T16:29:15;20.30;99.90
11505;DHT22;5809;53.262;10.408;2023-07-13T16:34:09;20.10;99.90
11505;DHT22;5809;53.262;10.408;2023-07-13T16:39:12;20.10;99.90
11505;DHT22;5809;53.262;10.408;2023-07-13T16:41:41;18.20;99.90
11505;DHT22;5809;53.262;10.408;2023-07-13T16:44:11;19.90;99.90
11505;DHT22;5809;53.262;10.408;2023-07-13T16:46:38;20.00;99.90
11505;DHT22;5809;53.262;10.408;2023-07-13T17:06:37;19.40;99.90
11505;DHT22;5809;53.262;10.408;2023-07-13T17:09:09;19.30;99.90
11505;DHT22;5809;53.262;10.408;2023-07-13T17:16:40;19.10;99.90
11505;DHT22;5809;53.262;10.408;2023-07-13T17:19:11;19.10;99.90
11505;DHT22;5809;53.262;10.408;2023-07-13T17:24:16;19.20;99.90
11505;DHT22;5809;53.262;10.408;2023-07-13T17:26:46;19.30;99.90
11505;DHT22;5809;53.262;10.408;2023-07-13T17:29:13;19.30;99.90
11505;DHT22;5809;53.262;10.408;2023-07-13T17:34:10;19.30;99.90
11505;DHT22;5809;53.262;10.408;2023-07-13T17:36:38;19.30;99.90
11505;DHT22;5809;53.262;10.408;2023-07-13T17:39:12;19.20;99.90
11505;DHT22;5809;53.262;10.408;2023-07-13T17:41:39;19.10;99.90
11505;DHT22;5809;53.262;10.408;2023-07-13T17:44:10;19.00;99.90
11505;DHT22;5809;53.262;10.408;2023-07-13T17:46:37;18.90;99.90
11505;DHT22;5809;53.262;10.408;2023-07-13T17:49:04;18.90;99.90
11505;DHT22;5809;53.262;10.408;2023-07-13T17:51:33;18.90;99.90
11505;DHT22;5809;53.262;10.408;2023-07-13T17:54:08;18.80;99.90
11505;DHT22;5809;53.262;10.408;2023-07-13T17:59:05;18.90;99.90
11505;DHT22;5809;53.262;10.408;2023-07-13T18:01:35;18.90;99.90
11505;DHT22;5809;53.262;10.408;2023-07-13T18:04:06;19.00;99.90
11505;DHT22;5809;53.262;10.408;2023-07-13T18:06:38;19.00;99.90
11505;DHT22;5809;53.262;10.408;2023-07-13T18:09:14;19.00;99.90
11505;DHT22;5809;53.262;10.408;2023-07-13T18:11:41;19.00;99.90
11505;DHT22;5809;53.262;10.408;2023-07-13T18:16:38;19.20;99.90
11505;DHT22;5809;53.262;10.408;2023-07-13T18:19:16;19.10;99.90
11505;DHT22;5809;53.262;10.408;2023-07-13T18:21:44;19.10;99.90
11505;DHT22;5809;53.262;10.408;2023-07-13T18:24:11;19.10;99.90
11505;DHT22;5809;53.262;10.408;2023-07-13T18:26:39;19.10;99.90
11505;DHT22;5809;53.262;10.408;2023-07-13T18:29:06;19.10;99.90
11505;DHT22;5809;53.262;10.408;2023-07-13T18:31:36;19.10;99.90
11505;DHT22;5809;53.262;10.408;2023-07-13T18:41:26;19.00;99.90
11505;DHT22;5809;53.262;10.408;2023-07-13T18:43:53;19.00;99.90
11505;DHT22;5809;53.262;10.408;2023-07-13T18:46:23;18.90;99.90
11505;DHT22;5809;53.262;10.408;2023-07-13T18:48:52;18.90;99.90
11505;DHT22;5809;53.262;10.408;2023-07-13T18:51:19;18.90;99.90
11505;DHT22;5809;53.262;10.408;2023-07-13T18:53:47;18.90;99.90
11505;DHT22;5809;53.262;10.408;2023-07-13T18:56:14;18.80;99.90
11505;DHT22;5809;53.262;10.408;2023-07-13T18:58:41;18.70;99.90
11505;DHT22;5809;53.262;10.408;2023-07-13T19:01:18;18.60;99.90
11505;DHT22;5809;53.262;10.408;2023-07-13T19:06:13;18.20;99.90
11505;DHT22;5809;53.262;10.408;2023-07-13T19:08:41;18.10;99.90
11505;DHT22;5809;53.262;10.408;2023-07-13T19:11:11;17.90;99.90
11505;DHT22;5809;53.262;10.408;2023-07-13T19:13:39;17.80;99.90
11505;DHT22;5809;53.262;10.408;2023-07-13T19:16:08;17.70;99.90
11505;DHT22;5809;53.262;10.408;2023-07-13T19:21:07;17.50;99.90
11505;DHT22;5809;53.262;10.408;2023-07-13T19:23:37;17.50;99.90
11505;DHT22;5809;53.262;10.408;2023-07-13T19:26:10;17.40;99.90
11505;DHT22;5809;53.262;10.408;2023-07-13T19:28:41;17.30;99.90
11505;DHT22;5809;53.262;10.408;2023-07-13T19:31:16;17.30;99.90
11505;DHT22;5809;53.262;10.408;2023-07-13T19:36:14;17.00;99.90
11505;DHT22;5809;53.262;10.408;2023-07-13T19:38:43;16.90;99.90
11505;DHT22;5809;53.262;10.408;2023-07-13T19:41:12;16.80;99.90
11505;DHT22;5809;53.262;10.408;2023-07-13T19:46:25;16.60;99.90
11505;DHT22;5809;53.262;10.408;2023-07-13T19:51:20;16.50;99.90
11505;DHT22;5809;53.262;10.408;2023-07-13T19:53:50;16.40;99.90
11505;DHT22;5809;53.262;10.408;2023-07-13T19:56:18;16.40;99.90
11505;DHT22;5809;53.262;10.408;2023-07-13T19:58:46;16.30;99.90
11505;DHT22;5809;53.262;10.408;2023-07-13T20:01:13;16.30;99.90
11505;DHT22;5809;53.262;10.408;2023-07-13T20:03:40;16.20;99.90
11505;DHT22;5809;53.262;10.408;2023-07-13T20:06:22;16.20;99.90
11505;DHT22;5809;53.262;10.408;2023-07-13T20:08:54;16.20;99.90
11505;DHT22;5809;53.262;10.408;2023-07-13T20:11:21;16.10;99.90
11505;DHT22;5809;53.262;10.408;2023-07-13T20:13:48;16.00;99.90
11505;DHT22;5809;53.262;10.408;2023-07-13T20:16:16;16.00;99.90
11505;DHT22;5809;53.262;10.408;2023-07-13T20:18:44;15.90;99.90
11505;DHT22;5809;53.262;10.408;2023-07-13T20:21:13;15.90;99.90
11505;DHT22;5809;53.262;10.408;2023-07-13T20:23:41;15.80;99.90
11505;DHT22;5809;53.262;10.408;2023-07-13T20:26:09;15.80;99.90
11505;DHT22;5809;53.262;10.408;2023-07-13T20:31:07;15.60;99.90
11505;DHT22;5809;53.262;10.408;2023-07-13T20:33:38;15.50;99.90
11505;DHT22;5809;53.262;10.408;2023-07-13T20:36:05;15.50;99.90
11505;DHT22;5809;53.262;10.408;2023-07-13T20:38:33;15.40;99.90
11505;DHT22;5809;53.262;10.408;2023-07-13T20:41:00;15.40;99.90
11505;DHT22;5809;53.262;10.408;2023-07-13T20:43:36;15.30;99.90
11505;DHT22;5809;53.262;10.408;2023-07-13T20:46:12;15.30;99.90
11505;DHT22;5809;53.262;10.408;2023-07-13T20:48:42;15.20;99.90
11505;DHT22;5809;53.262;10.408;2023-07-13T20:51:14;15.20;99.90
11505;DHT22;5809;53.262;10.408;2023-07-13T20:53:42;15.20;99.90
11505;DHT22;5809;53.262;10.408;2023-07-13T20:56:11;15.10;99.90
11505;DHT22;5809;53.262;10.408;2023-07-13T20:58:40;15.10;99.90
11505;DHT22;5809;53.262;10.408;2023-07-13T21:01:13;15.10;99.90
11505;DHT22;5809;53.262;10.408;2023-07-13T21:03:41;15.10;99.90
11505;DHT22;5809;53.262;10.408;2023-07-13T21:06:14;15.10;99.90
11505;DHT22;5809;53.262;10.408;2023-07-13T21:16:14;15.00;99.90
11505;DHT22;5809;53.262;10.408;2023-07-13T21:18:42;15.00;99.90
11505;DHT22;5809;53.262;10.408;2023-07-13T21:21:11;15.00;99.90
11505;DHT22;5809;53.262;10.408;2023-07-13T21:26:07;14.90;99.90
11505;DHT22;5809;53.262;10.408;2023-07-13T21:28:38;14.90;99.90
11505;DHT22;5809;53.262;10.408;2023-07-13T21:31:11;14.90;99.90
11505;DHT22;5809;53.262;10.408;2023-07-13T21:36:06;14.70;99.90
11505;DHT22;5809;53.262;10.408;2023-07-13T21:38:37;14.70;99.90
11505;DHT22;5809;53.262;10.408;2023-07-13T21:41:10;14.70;99.90
11505;DHT22;5809;53.262;10.408;2023-07-13T21:43:39;14.70;99.90
11505;DHT22;5809;53.262;10.408;2023-07-13T21:46:10;14.70;99.90
11505;DHT22;5809;53.262;10.408;2023-07-13T21:51:14;14.70;99.90
11505;DHT22;5809;53.262;10.408;2023-07-13T21:53:43;14.70;99.90
11505;DHT22;5809;53.262;10.408;2023-07-13T21:56:10;14.70;99.90
11505;DHT22;5809;53.262;10.408;2023-07-13T22:01:14;14.70;99.90
11505;DHT22;5809;53.262;10.408;2023-07-13T22:03:41;14.70;99.90
11505;DHT22;5809;53.262;10.408;2023-07-13T22:06:19;14.60;99.90
11505;DHT22;5809;53.262;10.408;2023-07-13T22:11:15;14.60;99.90
11505;DHT22;5809;53.262;10.408;2023-07-13T22:13:43;14.60;99.90
11505;DHT22;5809;53.262;10.408;2023-07-13T22:16:16;14.40;99.90
11505;DHT22;5809;53.262;10.408;2023-07-13T22:18:44;14.50;99.90
11505;DHT22;5809;53.262;10.408;2023-07-13T22:23:40;14.40;99.90
11505;DHT22;5809;53.262;10.408;2023-07-13T22:26:17;14.40;99.90
11505;DHT22;5809;53.262;10.408;2023-07-13T22:28:47;14.30;99.90
11505;DHT22;5809;53.262;10.408;2023-07-13T22:31:15;14.30;99.90
11505;DHT22;5809;53.262;10.408;2023-07-13T22:36:10;14.20;99.90
11505;DHT22;5809;53.262;10.408;2023-07-13T22:38:38;14.00;99.90
11505;DHT22;5809;53.262;10.408;2023-07-13T22:41:05;14.10;99.90
11505;DHT22;5809;53.262;10.408;2023-07-13T22:43:34;14.10;99.90
11505;DHT22;5809;53.262;10.408;2023-07-13T22:46:02;14.10;99.90
11505;DHT22;5809;53.262;10.408;2023-07-13T22:48:37;14.00;99.90
11505;DHT22;5809;53.262;10.408;2023-07-13T22:51:11;14.00;99.90
11505;DHT22;5809;53.262;10.408;2023-07-13T22:53:38;14.00;99.90
11505;DHT22;5809;53.262;10.408;2023-07-13T22:56:05;13.90;99.90